Milan — YT2484 — position and weather

sailwx.info

Track history (hours):
 
Tides and Currents Weather Stations Pressure Air Temp Water Temp Dewpoint Dewpoint Depression Visibility Wind Speed Wind Dir Waves Ship Positions

Milan

Last reported at 2017-Oct-18 16:30 UTC. Time now 2017-Oct-18 16:59 UTC.
Position N 44°41' E 020°56'.

Length 29 m.

Type: Cargo ship. MMSI: 279202484.

Date/timePositionNaut miles runAvg speedWind from/ knotsBaromVisibWave heightAir tempDewpointWater temp
2017-Oct-18 16:30N 44°41' E 020°56'2 3.1
2017-Oct-18 16:00N 44°42' E 020°58'2 3.1
2017-Oct-18 15:31N 44°43' E 020°59'1 2.9
2017-Oct-18 15:01N 44°43' E 021°01'3 3.0
2017-Oct-18 14:00N 44°43' E 021°06'2 3.1
2017-Oct-18 13:30N 44°44' E 021°08'2 3.1
2017-Oct-18 12:55N 44°45' E 021°10'2 2.8
2017-Oct-18 12:17N 44°46' E 021°12'24 1.7
2017-Oct-17 21:57N 44°47' E 020°38'2 5.2
2017-Oct-17 21:30N 44°49' E 020°39'2 4.2
2017-Oct-17 21:00N 44°51' E 020°38'0 0.2
2017-Oct-17 20:30N 44°51' E 020°38'0 0.7
2017-Oct-17 20:00N 44°51' E 020°38'0 0.0
2017-Oct-17 19:30N 44°51' E 020°38'0 0.0
2017-Oct-17 19:00N 44°51' E 020°38'0 0.0
2017-Oct-17 18:30N 44°51' E 020°38'0 0.0
2017-Oct-17 18:00N 44°51' E 020°38'0 0.4
2017-Oct-17 17:30N 44°51' E 020°38'0 0.1
2017-Oct-17 17:00N 44°51' E 020°38'0 0.3
2017-Oct-17 16:30N 44°51' E 020°38'0 0.0
2017-Oct-17 16:00N 44°51' E 020°38'0 0.0
2017-Oct-17 15:30N 44°51' E 020°38'0 0.0
2017-Oct-17 15:00N 44°51' E 020°38'0 0.1
2017-Oct-17 14:30N 44°51' E 020°38'0 0.0
2017-Oct-17 14:00N 44°51' E 020°38'0 0.0
2017-Oct-17 13:30N 44°51' E 020°38'0 0.0
2017-Oct-17 13:00N 44°51' E 020°38'0 0.0
2017-Oct-17 12:30N 44°51' E 020°38'1 1.1
2017-Oct-17 12:00N 44°51' E 020°38'0 0.1
2017-Oct-17 11:30N 44°51' E 020°38'0 0.0
2017-Oct-17 11:00N 44°51' E 020°38'0 0.0
2017-Oct-17 10:29N 44°51' E 020°38'0 0.0
2017-Oct-17 10:00N 44°51' E 020°38'0 0.0
2017-Oct-17 09:30N 44°51' E 020°38'0 0.0
2017-Oct-17 09:00N 44°51' E 020°38'0 0.0
2017-Oct-17 08:03N 44°51' E 020°38'0 0.0
2017-Oct-17 07:55N 44°51' E 020°38'0 0.0
2017-Oct-17 07:29N 44°51' E 020°38'0 0.0
2017-Oct-17 07:00N 44°51' E 020°38'0 0.0
2017-Oct-17 06:30N 44°51' E 020°38'0 0.0
2017-Oct-17 06:00N 44°51' E 020°38'0 0.0
2017-Oct-17 05:30N 44°51' E 020°38'0 0.0
2017-Oct-17 05:00N 44°51' E 020°38'0 0.0
2017-Oct-17 04:30N 44°51' E 020°38'0 0.0
2017-Oct-17 04:00N 44°51' E 020°38'0 0.0
2017-Oct-17 03:16N 44°51' E 020°38'0 0.0
2017-Oct-17 03:00N 44°51' E 020°38'0 0.0
2017-Oct-17 02:30N 44°51' E 020°38'0 0.0
2017-Oct-17 02:00N 44°51' E 020°38'0 0.0
2017-Oct-17 01:30N 44°51' E 020°38'0 0.0
2017-Oct-17 01:00N 44°51' E 020°38'0 0.0
2017-Oct-17 00:30N 44°51' E 020°38'0 0.0
2017-Oct-17 00:00N 44°51' E 020°38'0 0.0
2017-Oct-16 23:31N 44°51' E 020°38'0 0.0
2017-Oct-16 23:00N 44°51' E 020°38'0 0.0
2017-Oct-16 22:30N 44°51' E 020°38'0 0.0
2017-Oct-16 22:01N 44°51' E 020°38'0 0.0
2017-Oct-16 21:30N 44°51' E 020°38'0 0.0
2017-Oct-16 21:00N 44°51' E 020°38'0 0.0
2017-Oct-16 20:31N 44°51' E 020°38'1 1.7
2017-Oct-16 20:01N 44°50' E 020°39'2 3.2
2017-Oct-16 19:30N 44°48' E 020°38'2 3.4
2017-Oct-16 19:01N 44°47' E 020°38'2 3.2
2017-Oct-16 18:30N 44°45' E 020°38'2 3.3
2017-Oct-16 18:00N 44°44' E 020°40'2 3.4
2017-Oct-16 17:30N 44°43' E 020°42'2 3.2
2017-Oct-16 17:00N 44°41' E 020°43'1 2.8
2017-Oct-16 16:30N 44°40' E 020°44'0 0.2
2017-Oct-16 16:00N 44°40' E 020°44'0 0.0
2017-Oct-16 15:31N 44°40' E 020°44'0 0.0
2017-Oct-16 14:59N 44°40' E 020°44'0 0.0
2017-Oct-16 14:00N 44°40' E 020°44'0 0.0
2017-Oct-16 13:30N 44°40' E 020°44'0 0.0
2017-Oct-16 13:00N 44°40' E 020°44'0 0.0
2017-Oct-16 12:30N 44°40' E 020°44'0 0.0
2017-Oct-16 11:59N 44°40' E 020°44'0 0.0
2017-Oct-16 11:28N 44°40' E 020°44'0 0.0
2017-Oct-16 10:53N 44°40' E 020°44'0 0.0
2017-Oct-16 10:29N 44°40' E 020°44'0 0.0
2017-Oct-16 10:00N 44°40' E 020°44'0 0.0
2017-Oct-16 09:30N 44°40' E 020°44'12 2.2
2017-Oct-16 03:48N 44°43' E 021°01'1 3.4
2017-Oct-16 03:31N 44°43' E 021°02'0 0.0
2017-Oct-15 13:57N 44°43' E 021°03'2 5.1
2017-Oct-15 13:29N 44°43' E 020°59'2 5.2
2017-Oct-15 13:00N 44°41' E 020°57'3 5.1
2017-Oct-15 12:30N 44°40' E 020°54'3 5.4
2017-Oct-15 12:00N 44°39' E 020°50'3 5.6
2017-Oct-15 11:30N 44°40' E 020°46'3 5.4
2017-Oct-15 11:00N 44°41' E 020°43'3 5.3
2017-Oct-15 10:30N 44°44' E 020°41'3 5.4
2017-Oct-15 10:00N 44°45' E 020°38'3 5.0
2017-Oct-15 09:30N 44°48' E 020°38'3 5.1
2017-Oct-15 09:00N 44°50' E 020°38'2 4.9
2017-Oct-15 08:30N 44°51' E 020°35'3 5.5
2017-Oct-15 08:00N 44°50' E 020°32'3 5.7
2017-Oct-15 07:30N 44°50' E 020°28'2 4.2
2017-Oct-15 07:01N 44°48' E 020°26'2 4.9
2017-Oct-15 06:30N 44°48' E 020°23'1 2.5
2017-Oct-15 06:00N 44°47' E 020°22'0 0.0
2017-Oct-15 05:30N 44°47' E 020°22'0 0.0
2017-Oct-15 05:00N 44°47' E 020°22'0 0.0
2017-Oct-15 04:30N 44°47' E 020°22'0 0.0
2017-Oct-15 04:00N 44°47' E 020°22'0 0.0
2017-Oct-15 03:30N 44°47' E 020°22'0 0.1
2017-Oct-15 03:00N 44°47' E 020°22'2 4.0
2017-Oct-15 02:30N 44°45' E 020°20'1 1.3
2017-Oct-15 02:00N 44°45' E 020°19'0 0.1
2017-Oct-15 01:30N 44°45' E 020°19'0 0.0
2017-Oct-15 01:00N 44°45' E 020°19'0 0.0
2017-Oct-15 00:30N 44°45' E 020°19'0 0.0
2017-Oct-15 00:00N 44°45' E 020°19'0 0.1
2017-Oct-14 23:30N 44°45' E 020°19'0 0.1
2017-Oct-14 23:00N 44°45' E 020°19'0 0.0
2017-Oct-14 22:30N 44°45' E 020°19'0 0.0
2017-Oct-14 22:00N 44°45' E 020°19'0 0.0
2017-Oct-14 21:30N 44°45' E 020°19'0 0.0
2017-Oct-14 21:00N 44°45' E 020°19'0 0.2
2017-Oct-14 20:30N 44°45' E 020°19'1 2.5
2017-Oct-14 20:00N 44°46' E 020°21'2 4.0
2017-Oct-14 19:30N 44°47' E 020°22'2 3.8
2017-Oct-14 19:00N 44°48' E 020°25'2 3.4
2017-Oct-14 18:30N 44°49' E 020°27'1 2.7
2017-Oct-14 18:00N 44°50' E 020°28'2 3.2
2017-Oct-14 17:30N 44°50' E 020°30'2 3.3
2017-Oct-14 17:00N 44°50' E 020°32'2 3.4
2017-Oct-14 16:30N 44°51' E 020°34'2 3.4
2017-Oct-14 16:00N 44°51' E 020°37'2 3.2
2017-Oct-14 15:30N 44°50' E 020°38'2 3.2
2017-Oct-14 15:00N 44°49' E 020°38'2 3.5
2017-Oct-14 14:30N 44°47' E 020°38'2 3.1
2017-Oct-14 14:00N 44°45' E 020°38'2 3.1
2017-Oct-14 13:30N 44°44' E 020°40'2 3.2
2017-Oct-14 13:00N 44°43' E 020°41'2 3.0
2017-Oct-14 12:30N 44°42' E 020°43'2 3.2
2017-Oct-14 12:00N 44°41' E 020°44'2 3.2
2017-Oct-14 11:30N 44°40' E 020°46'2 3.1
2017-Oct-14 11:00N 44°40' E 020°48'2 3.0
2017-Oct-14 10:30N 44°40' E 020°50'2 3.2
2017-Oct-14 10:00N 44°40' E 020°52'2 3.3
2017-Oct-14 09:30N 44°40' E 020°55'5 3.3
2017-Oct-14 07:53N 44°43' E 021°01'3 0.1
2017-Oct-13 13:52N 44°42' E 020°58'2 5.1
2017-Oct-13 13:31N 44°41' E 020°56'3 5.1
2017-Oct-13 13:00N 44°40' E 020°52'3 5.5
2017-Oct-13 12:30N 44°39' E 020°49'3 5.4
2017-Oct-13 12:00N 44°40' E 020°45'1 1.6
2017-Oct-13 11:28N 44°40' E 020°44'0 0.1
2017-Oct-13 11:00N 44°40' E 020°44'0 0.0
2017-Oct-13 08:41N 44°40' E 020°44'0 0.4
2017-Oct-13 08:22N 44°40' E 020°44'1 3.7
2017-Oct-13 08:00N 44°41' E 020°43'5 6.7
2017-Oct-13 07:18N 44°45' E 020°38'2 6.4
2017-Oct-13 07:00N 44°47' E 020°38'3 6.5
2017-Oct-13 06:30N 44°50' E 020°39'3 5.8
2017-Oct-13 06:00N 44°51' E 020°35'3 6.7
2017-Oct-13 05:30N 44°50' E 020°30'3 5.4
2017-Oct-13 05:00N 44°49' E 020°27'2 5.0
2017-Oct-13 04:30N 44°48' E 020°24'3 6.0
2017-Oct-13 04:00N 44°46' E 020°21'2 3.1
2017-Oct-13 03:30N 44°45' E 020°19'0 0.0
2017-Oct-13 03:00N 44°45' E 020°19'0 0.0
2017-Oct-13 02:30N 44°45' E 020°19'0 0.0
2017-Oct-13 02:00N 44°45' E 020°19'0 0.0
2017-Oct-13 01:30N 44°45' E 020°19'1 1.0
2017-Oct-13 01:00N 44°45' E 020°20'2 4.4
2017-Oct-13 00:30N 44°47' E 020°22'2 4.1
2017-Oct-13 00:00N 44°48' E 020°24'2 4.0
2017-Oct-12 23:30N 44°49' E 020°27'2 3.0
2017-Oct-12 23:00N 44°50' E 020°28'2 3.1
2017-Oct-12 22:30N 44°50' E 020°30'0 0.0
2017-Oct-12 22:00N 44°50' E 020°30'1 2.9
2017-Oct-12 21:30N 44°50' E 020°32'2 3.1
2017-Oct-12 21:00N 44°51' E 020°34'2 3.0
2017-Oct-12 20:30N 44°51' E 020°36'1 2.9
2017-Oct-12 20:00N 44°51' E 020°38'1 3.0
2017-Oct-12 19:30N 44°50' E 020°39'2 3.1
2017-Oct-12 18:59N 44°48' E 020°38'2 3.0
2017-Oct-12 18:27N 44°46' E 020°38'1 2.9
2017-Oct-12 17:58N 44°45' E 020°39'16 1.5
2017-Oct-12 07:40N 44°43' E 021°01'1 3.6
2017-Oct-12 07:27N 44°43' E 021°02'6 0.5
2017-Oct-11 18:06N 44°45' E 021°10'1 5.2
2017-Oct-11 18:00N 44°45' E 021°10'11 0.5
2017-Oct-10 20:06N 44°40' E 020°56'0 3.7
2017-Oct-10 20:00N 44°41' E 020°56'2 3.7
2017-Oct-10 19:30N 44°42' E 020°58'2 3.6
2017-Oct-10 19:01N 44°43' E 020°60'2 3.5
2017-Oct-10 18:30N 44°43' E 021°02'2 3.6
2017-Oct-10 18:00N 44°43' E 021°05'2 3.6
2017-Oct-10 17:30N 44°44' E 021°07'2 3.6
2017-Oct-10 17:00N 44°45' E 021°10'8 0.6
2017-Oct-10 03:17N 44°42' E 020°58'15 4.1
2017-Oct-09 23:36N 44°47' E 020°38'0 5.2
2017-Oct-09 23:30N 44°47' E 020°38'3 5.1
2017-Oct-09 23:00N 44°50' E 020°39'2 4.7
2017-Oct-09 22:30N 44°51' E 020°36'3 5.2
2017-Oct-09 22:00N 44°50' E 020°33'3 5.0
2017-Oct-09 21:30N 44°50' E 020°30'2 4.1
2017-Oct-09 21:00N 44°49' E 020°27'2 4.2
2017-Oct-09 20:30N 44°48' E 020°25'2 4.9
2017-Oct-09 20:00N 44°47' E 020°22'3 5.1
2017-Oct-09 19:30N 44°45' E 020°19'0 0.3
2017-Oct-09 19:00N 44°45' E 020°19'0 0.0
2017-Oct-09 18:30N 44°45' E 020°19'0 0.0
2017-Oct-09 18:00N 44°45' E 020°19'0 0.0
2017-Oct-09 17:30N 44°45' E 020°19'0 0.0
2017-Oct-09 17:00N 44°45' E 020°19'0 0.1
2017-Oct-09 16:30N 44°45' E 020°19'0 0.1
2017-Oct-09 16:00N 44°45' E 020°19'0 0.0
2017-Oct-09 15:30N 44°45' E 020°19'0 0.0
2017-Oct-09 15:00N 44°45' E 020°19'0 0.0
2017-Oct-09 14:30N 44°45' E 020°19'0 0.0
2017-Oct-09 14:00N 44°45' E 020°19'0 0.0
2017-Oct-09 13:30N 44°45' E 020°19'1 1.4
2017-Oct-09 13:00N 44°45' E 020°20'2 4.0
2017-Oct-09 12:30N 44°47' E 020°22'2 3.8
2017-Oct-09 12:00N 44°48' E 020°24'2 3.7
2017-Oct-09 11:30N 44°48' E 020°27'2 3.4
2017-Oct-09 11:00N 44°50' E 020°27'2 3.2
2017-Oct-09 10:30N 44°50' E 020°29'2 3.4
2017-Oct-09 10:00N 44°50' E 020°32'2 3.4
2017-Oct-09 09:30N 44°51' E 020°34'2 3.5
2017-Oct-09 09:00N 44°51' E 020°36'2 3.3
2017-Oct-09 08:30N 44°51' E 020°38'2 3.3
2017-Oct-09 08:00N 44°49' E 020°39'2 3.7
2017-Oct-09 07:28N 44°47' E 020°38'2 3.3
2017-Oct-09 06:53N 44°45' E 020°38'1 3.6
2017-Oct-09 06:30N 44°44' E 020°40'3 3.6
2017-Oct-09 05:40N 44°42' E 020°43'10 3.2
2017-Oct-09 02:27N 44°42' E 020°57'2 3.6
2017-Oct-09 01:48N 44°43' E 020°60'1 3.5
2017-Oct-09 01:30N 44°43' E 021°01'  
Track history (hours):
 
Tides and Currents Weather Stations Pressure Air Temp Water Temp Dewpoint Dewpoint Depression Visibility Wind Speed Wind Dir Waves Ship Positions

Milan

Last reported at 2017-Oct-18 16:30 UTC. Time now 2017-Oct-18 16:59 UTC.
Position N 44°41' E 020°56'.

Length 29 m.

Type: Cargo ship. MMSI: 279202484.

Date/timePositionNaut miles runAvg speedWind from/ knotsBaromVisibWave heightAir tempDewpointWater temp
2017-Oct-18 16:30N 44°41' E 020°56'2 3.1
2017-Oct-18 16:00N 44°42' E 020°58'2 3.1
2017-Oct-18 15:31N 44°43' E 020°59'1 2.9
2017-Oct-18 15:01N 44°43' E 021°01'3 3.0
2017-Oct-18 14:00N 44°43' E 021°06'2 3.1
2017-Oct-18 13:30N 44°44' E 021°08'2 3.1
2017-Oct-18 12:55N 44°45' E 021°10'2 2.8
2017-Oct-18 12:17N 44°46' E 021°12'24 1.7
2017-Oct-17 21:57N 44°47' E 020°38'2 5.2
2017-Oct-17 21:30N 44°49' E 020°39'2 4.2
2017-Oct-17 21:00N 44°51' E 020°38'0 0.2
2017-Oct-17 20:30N 44°51' E 020°38'0 0.7
2017-Oct-17 20:00N 44°51' E 020°38'0 0.0
2017-Oct-17 19:30N 44°51' E 020°38'0 0.0
2017-Oct-17 19:00N 44°51' E 020°38'0 0.0
2017-Oct-17 18:30N 44°51' E 020°38'0 0.0
2017-Oct-17 18:00N 44°51' E 020°38'0 0.4
2017-Oct-17 17:30N 44°51' E 020°38'0 0.1
2017-Oct-17 17:00N 44°51' E 020°38'0 0.3
2017-Oct-17 16:30N 44°51' E 020°38'0 0.0
2017-Oct-17 16:00N 44°51' E 020°38'0 0.0
2017-Oct-17 15:30N 44°51' E 020°38'0 0.0
2017-Oct-17 15:00N 44°51' E 020°38'0 0.1
2017-Oct-17 14:30N 44°51' E 020°38'0 0.0
2017-Oct-17 14:00N 44°51' E 020°38'0 0.0
2017-Oct-17 13:30N 44°51' E 020°38'0 0.0
2017-Oct-17 13:00N 44°51' E 020°38'0 0.0
2017-Oct-17 12:30N 44°51' E 020°38'1 1.1
2017-Oct-17 12:00N 44°51' E 020°38'0 0.1
2017-Oct-17 11:30N 44°51' E 020°38'0 0.0
2017-Oct-17 11:00N 44°51' E 020°38'0 0.0
2017-Oct-17 10:29N 44°51' E 020°38'0 0.0
2017-Oct-17 10:00N 44°51' E 020°38'0 0.0
2017-Oct-17 09:30N 44°51' E 020°38'0 0.0
2017-Oct-17 09:00N 44°51' E 020°38'0 0.0
2017-Oct-17 08:03N 44°51' E 020°38'0 0.0
2017-Oct-17 07:55N 44°51' E 020°38'0 0.0
2017-Oct-17 07:29N 44°51' E 020°38'0 0.0
2017-Oct-17 07:00N 44°51' E 020°38'0 0.0
2017-Oct-17 06:30N 44°51' E 020°38'0 0.0
2017-Oct-17 06:00N 44°51' E 020°38'0 0.0
2017-Oct-17 05:30N 44°51' E 020°38'0 0.0
2017-Oct-17 05:00N 44°51' E 020°38'0 0.0
2017-Oct-17 04:30N 44°51' E 020°38'0 0.0
2017-Oct-17 04:00N 44°51' E 020°38'0 0.0
2017-Oct-17 03:16N 44°51' E 020°38'0 0.0
2017-Oct-17 03:00N 44°51' E 020°38'0 0.0
2017-Oct-17 02:30N 44°51' E 020°38'0 0.0
2017-Oct-17 02:00N 44°51' E 020°38'0 0.0
2017-Oct-17 01:30N 44°51' E 020°38'0 0.0
2017-Oct-17 01:00N 44°51' E 020°38'0 0.0
2017-Oct-17 00:30N 44°51' E 020°38'0 0.0
2017-Oct-17 00:00N 44°51' E 020°38'0 0.0
2017-Oct-16 23:31N 44°51' E 020°38'0 0.0
2017-Oct-16 23:00N 44°51' E 020°38'0 0.0
2017-Oct-16 22:30N 44°51' E 020°38'0 0.0
2017-Oct-16 22:01N 44°51' E 020°38'0 0.0
2017-Oct-16 21:30N 44°51' E 020°38'0 0.0
2017-Oct-16 21:00N 44°51' E 020°38'0 0.0
2017-Oct-16 20:31N 44°51' E 020°38'1 1.7
2017-Oct-16 20:01N 44°50' E 020°39'2 3.2
2017-Oct-16 19:30N 44°48' E 020°38'2 3.4
2017-Oct-16 19:01N 44°47' E 020°38'2 3.2
2017-Oct-16 18:30N 44°45' E 020°38'2 3.3
2017-Oct-16 18:00N 44°44' E 020°40'2 3.4
2017-Oct-16 17:30N 44°43' E 020°42'2 3.2
2017-Oct-16 17:00N 44°41' E 020°43'1 2.8
2017-Oct-16 16:30N 44°40' E 020°44'0 0.2
2017-Oct-16 16:00N 44°40' E 020°44'0 0.0
2017-Oct-16 15:31N 44°40' E 020°44'0 0.0
2017-Oct-16 14:59N 44°40' E 020°44'0 0.0
2017-Oct-16 14:00N 44°40' E 020°44'0 0.0
2017-Oct-16 13:30N 44°40' E 020°44'0 0.0
2017-Oct-16 13:00N 44°40' E 020°44'0 0.0
2017-Oct-16 12:30N 44°40' E 020°44'0 0.0
2017-Oct-16 11:59N 44°40' E 020°44'0 0.0
2017-Oct-16 11:28N 44°40' E 020°44'0 0.0
2017-Oct-16 10:53N 44°40' E 020°44'0 0.0
2017-Oct-16 10:29N 44°40' E 020°44'0 0.0
2017-Oct-16 10:00N 44°40' E 020°44'0 0.0
2017-Oct-16 09:30N 44°40' E 020°44'12 2.2
2017-Oct-16 03:48N 44°43' E 021°01'1 3.4
2017-Oct-16 03:31N 44°43' E 021°02'0 0.0
2017-Oct-15 13:57N 44°43' E 021°03'2 5.1
2017-Oct-15 13:29N 44°43' E 020°59'2 5.2
2017-Oct-15 13:00N 44°41' E 020°57'3 5.1
2017-Oct-15 12:30N 44°40' E 020°54'3 5.4
2017-Oct-15 12:00N 44°39' E 020°50'3 5.6
2017-Oct-15 11:30N 44°40' E 020°46'3 5.4
2017-Oct-15 11:00N 44°41' E 020°43'3 5.3
2017-Oct-15 10:30N 44°44' E 020°41'3 5.4
2017-Oct-15 10:00N 44°45' E 020°38'3 5.0
2017-Oct-15 09:30N 44°48' E 020°38'3 5.1
2017-Oct-15 09:00N 44°50' E 020°38'2 4.9
2017-Oct-15 08:30N 44°51' E 020°35'3 5.5
2017-Oct-15 08:00N 44°50' E 020°32'3 5.7
2017-Oct-15 07:30N 44°50' E 020°28'2 4.2
2017-Oct-15 07:01N 44°48' E 020°26'2 4.9
2017-Oct-15 06:30N 44°48' E 020°23'1 2.5
2017-Oct-15 06:00N 44°47' E 020°22'0 0.0
2017-Oct-15 05:30N 44°47' E 020°22'0 0.0
2017-Oct-15 05:00N 44°47' E 020°22'0 0.0
2017-Oct-15 04:30N 44°47' E 020°22'0 0.0
2017-Oct-15 04:00N 44°47' E 020°22'0 0.0
2017-Oct-15 03:30N 44°47' E 020°22'0 0.1
2017-Oct-15 03:00N 44°47' E 020°22'2 4.0
2017-Oct-15 02:30N 44°45' E 020°20'1 1.3
2017-Oct-15 02:00N 44°45' E 020°19'0 0.1
2017-Oct-15 01:30N 44°45' E 020°19'0 0.0
2017-Oct-15 01:00N 44°45' E 020°19'0 0.0
2017-Oct-15 00:30N 44°45' E 020°19'0 0.0
2017-Oct-15 00:00N 44°45' E 020°19'0 0.1
2017-Oct-14 23:30N 44°45' E 020°19'0 0.1
2017-Oct-14 23:00N 44°45' E 020°19'0 0.0
2017-Oct-14 22:30N 44°45' E 020°19'0 0.0
2017-Oct-14 22:00N 44°45' E 020°19'0 0.0
2017-Oct-14 21:30N 44°45' E 020°19'0 0.0
2017-Oct-14 21:00N 44°45' E 020°19'0 0.2
2017-Oct-14 20:30N 44°45' E 020°19'1 2.5
2017-Oct-14 20:00N 44°46' E 020°21'2 4.0
2017-Oct-14 19:30N 44°47' E 020°22'2 3.8
2017-Oct-14 19:00N 44°48' E 020°25'2 3.4
2017-Oct-14 18:30N 44°49' E 020°27'1 2.7
2017-Oct-14 18:00N 44°50' E 020°28'2 3.2
2017-Oct-14 17:30N 44°50' E 020°30'2 3.3
2017-Oct-14 17:00N 44°50' E 020°32'2 3.4
2017-Oct-14 16:30N 44°51' E 020°34'2 3.4
2017-Oct-14 16:00N 44°51' E 020°37'2 3.2
2017-Oct-14 15:30N 44°50' E 020°38'2 3.2
2017-Oct-14 15:00N 44°49' E 020°38'2 3.5
2017-Oct-14 14:30N 44°47' E 020°38'2 3.1
2017-Oct-14 14:00N 44°45' E 020°38'2 3.1
2017-Oct-14 13:30N 44°44' E 020°40'2 3.2
2017-Oct-14 13:00N 44°43' E 020°41'2 3.0
2017-Oct-14 12:30N 44°42' E 020°43'2 3.2
2017-Oct-14 12:00N 44°41' E 020°44'2 3.2
2017-Oct-14 11:30N 44°40' E 020°46'2 3.1
2017-Oct-14 11:00N 44°40' E 020°48'2 3.0
2017-Oct-14 10:30N 44°40' E 020°50'2 3.2
2017-Oct-14 10:00N 44°40' E 020°52'2 3.3
2017-Oct-14 09:30N 44°40' E 020°55'5 3.3
2017-Oct-14 07:53N 44°43' E 021°01'3 0.1
2017-Oct-13 13:52N 44°42' E 020°58'2 5.1
2017-Oct-13 13:31N 44°41' E 020°56'3 5.1
2017-Oct-13 13:00N 44°40' E 020°52'3 5.5
2017-Oct-13 12:30N 44°39' E 020°49'3 5.4
2017-Oct-13 12:00N 44°40' E 020°45'1 1.6
2017-Oct-13 11:28N 44°40' E 020°44'0 0.1
2017-Oct-13 11:00N 44°40' E 020°44'0 0.0
2017-Oct-13 08:41N 44°40' E 020°44'0 0.4
2017-Oct-13 08:22N 44°40' E 020°44'1 3.7
2017-Oct-13 08:00N 44°41' E 020°43'5 6.7
2017-Oct-13 07:18N 44°45' E 020°38'2 6.4
2017-Oct-13 07:00N 44°47' E 020°38'3 6.5
2017-Oct-13 06:30N 44°50' E 020°39'3 5.8
2017-Oct-13 06:00N 44°51' E 020°35'3 6.7
2017-Oct-13 05:30N 44°50' E 020°30'3 5.4
2017-Oct-13 05:00N 44°49' E 020°27'2 5.0
2017-Oct-13 04:30N 44°48' E 020°24'3 6.0
2017-Oct-13 04:00N 44°46' E 020°21'2 3.1
2017-Oct-13 03:30N 44°45' E 020°19'0 0.0
2017-Oct-13 03:00N 44°45' E 020°19'0 0.0
2017-Oct-13 02:30N 44°45' E 020°19'0 0.0
2017-Oct-13 02:00N 44°45' E 020°19'0 0.0
2017-Oct-13 01:30N 44°45' E 020°19'1 1.0
2017-Oct-13 01:00N 44°45' E 020°20'2 4.4
2017-Oct-13 00:30N 44°47' E 020°22'2 4.1
2017-Oct-13 00:00N 44°48' E 020°24'2 4.0
2017-Oct-12 23:30N 44°49' E 020°27'2 3.0
2017-Oct-12 23:00N 44°50' E 020°28'2 3.1
2017-Oct-12 22:30N 44°50' E 020°30'0 0.0
2017-Oct-12 22:00N 44°50' E 020°30'1 2.9
2017-Oct-12 21:30N 44°50' E 020°32'2 3.1
2017-Oct-12 21:00N 44°51' E 020°34'2 3.0
2017-Oct-12 20:30N 44°51' E 020°36'1 2.9
2017-Oct-12 20:00N 44°51' E 020°38'1 3.0
2017-Oct-12 19:30N 44°50' E 020°39'2 3.1
2017-Oct-12 18:59N 44°48' E 020°38'2 3.0
2017-Oct-12 18:27N 44°46' E 020°38'1 2.9
2017-Oct-12 17:58N 44°45' E 020°39'16 1.5
2017-Oct-12 07:40N 44°43' E 021°01'1 3.6
2017-Oct-12 07:27N 44°43' E 021°02'6 0.5
2017-Oct-11 18:06N 44°45' E 021°10'1 5.2
2017-Oct-11 18:00N 44°45' E 021°10'11 0.5
2017-Oct-10 20:06N 44°40' E 020°56'0 3.7
2017-Oct-10 20:00N 44°41' E 020°56'2 3.7
2017-Oct-10 19:30N 44°42' E 020°58'2 3.6
2017-Oct-10 19:01N 44°43' E 020°60'2 3.5
2017-Oct-10 18:30N 44°43' E 021°02'2 3.6
2017-Oct-10 18:00N 44°43' E 021°05'2 3.6
2017-Oct-10 17:30N 44°44' E 021°07'2 3.6
2017-Oct-10 17:00N 44°45' E 021°10'8 0.6
2017-Oct-10 03:17N 44°42' E 020°58'15 4.1
2017-Oct-09 23:36N 44°47' E 020°38'0 5.2
2017-Oct-09 23:30N 44°47' E 020°38'3 5.1
2017-Oct-09 23:00N 44°50' E 020°39'2 4.7
2017-Oct-09 22:30N 44°51' E 020°36'3 5.2
2017-Oct-09 22:00N 44°50' E 020°33'3 5.0
2017-Oct-09 21:30N 44°50' E 020°30'2 4.1
2017-Oct-09 21:00N 44°49' E 020°27'2 4.2
2017-Oct-09 20:30N 44°48' E 020°25'2 4.9
2017-Oct-09 20:00N 44°47' E 020°22'3 5.1
2017-Oct-09 19:30N 44°45' E 020°19'0 0.3
2017-Oct-09 19:00N 44°45' E 020°19'0 0.0
2017-Oct-09 18:30N 44°45' E 020°19'0 0.0
2017-Oct-09 18:00N 44°45' E 020°19'0 0.0
2017-Oct-09 17:30N 44°45' E 020°19'0 0.0
2017-Oct-09 17:00N 44°45' E 020°19'0 0.1
2017-Oct-09 16:30N 44°45' E 020°19'0 0.1
2017-Oct-09 16:00N 44°45' E 020°19'0 0.0
2017-Oct-09 15:30N 44°45' E 020°19'0 0.0
2017-Oct-09 15:00N 44°45' E 020°19'0 0.0
2017-Oct-09 14:30N 44°45' E 020°19'0 0.0
2017-Oct-09 14:00N 44°45' E 020°19'0 0.0
2017-Oct-09 13:30N 44°45' E 020°19'1 1.4
2017-Oct-09 13:00N 44°45' E 020°20'2 4.0
2017-Oct-09 12:30N 44°47' E 020°22'2 3.8
2017-Oct-09 12:00N 44°48' E 020°24'2 3.7
2017-Oct-09 11:30N 44°48' E 020°27'2 3.4
2017-Oct-09 11:00N 44°50' E 020°27'2 3.2
2017-Oct-09 10:30N 44°50' E 020°29'2 3.4
2017-Oct-09 10:00N 44°50' E 020°32'2 3.4
2017-Oct-09 09:30N 44°51' E 020°34'2 3.5
2017-Oct-09 09:00N 44°51' E 020°36'2 3.3
2017-Oct-09 08:30N 44°51' E 020°38'2 3.3
2017-Oct-09 08:00N 44°49' E 020°39'2 3.7
2017-Oct-09 07:28N 44°47' E 020°38'2 3.3
2017-Oct-09 06:53N 44°45' E 020°38'1 3.6
2017-Oct-09 06:30N 44°44' E 020°40'3 3.6
2017-Oct-09 05:40N 44°42' E 020°43'10 3.2
2017-Oct-09 02:27N 44°42' E 020°57'2 3.6
2017-Oct-09 01:48N 44°43' E 020°60'1 3.5
2017-Oct-09 01:30N 44°43' E 021°01'  

Dump ship's entire track history